createdAt,value
2023-05-12T00:01:04.213Z,6.2
2023-05-12T00:02:12.709Z,6.2
2023-05-12T00:03:21.123Z,6.2
2023-05-12T00:04:29.381Z,6.2
2023-05-12T00:05:37.888Z,6.2
2023-05-12T00:06:46.217Z,6.2
2023-05-12T00:07:54.537Z,6.2
2023-05-12T00:09:03.082Z,6.3
2023-05-12T00:10:11.395Z,6.3
2023-05-12T00:11:19.713Z,6.3
2023-05-12T00:12:28.260Z,6.4
2023-05-12T00:13:36.638Z,6.4
2023-05-12T00:14:44.898Z,6.4
2023-05-12T00:15:53.441Z,6.2
2023-05-12T00:17:01.777Z,6.2
2023-05-12T00:18:10.089Z,6.2
2023-05-12T00:19:18.624Z,7
2023-05-12T00:20:27.256Z,7
2023-05-12T00:21:35.578Z,7
2023-05-12T00:22:44.113Z,7.5
2023-05-12T00:23:52.428Z,7.5
2023-05-12T00:25:00.736Z,7.5
2023-05-12T00:26:09.272Z,7.8
2023-05-12T00:27:17.610Z,7.8
2023-05-12T00:28:25.916Z,7.8
2023-05-12T00:29:34.465Z,8.4
2023-05-12T00:30:42.754Z,8.4
2023-05-12T00:31:51.120Z,8.4
2023-05-12T00:32:59.723Z,9.1
2023-05-12T00:34:07.954Z,9.1
2023-05-12T00:35:16.281Z,9.1
2023-05-12T00:36:24.794Z,8.2
2023-05-12T00:37:33.123Z,8.2
2023-05-12T00:38:41.444Z,8.2
2023-05-12T00:39:49.978Z,8.9
2023-05-12T00:40:58.313Z,8.9
2023-05-12T00:42:06.641Z,8.9
2023-05-12T00:43:15.165Z,9.1
2023-05-12T00:44:23.489Z,9.1
2023-05-12T00:45:31.884Z,9.1
2023-05-12T00:46:40.348Z,9.1
2023-05-12T00:47:48.683Z,9.1
2023-05-12T00:48:57.001Z,9.1
2023-05-12T00:50:05.508Z,8
2023-05-12T00:51:13.875Z,8
2023-05-12T00:52:22.170Z,8
2023-05-12T00:53:41.328Z,8
2023-05-12T00:54:38.999Z,8
2023-05-12T00:55:47.362Z,8
2023-05-12T00:56:55.894Z,8.4
2023-05-12T00:58:04.224Z,8.4
2023-05-12T00:59:12.547Z,8.4
2023-05-12T01:00:21.255Z,8.5
2023-05-12T01:01:29.441Z,8.5
2023-05-12T01:02:37.773Z,8.5
2023-05-12T01:03:46.312Z,9
2023-05-12T01:04:54.585Z,9
2023-05-12T01:06:02.889Z,9
2023-05-12T01:07:11.433Z,8.2
2023-05-12T01:08:19.753Z,8.2
2023-05-12T01:09:28.083Z,8.2
2023-05-12T01:10:36.612Z,8.6
2023-05-12T01:11:44.937Z,8.6
2023-05-12T01:12:53.248Z,8.6
2023-05-12T01:14:01.786Z,8.8
2023-05-12T01:15:10.109Z,8.8
2023-05-12T01:16:18.424Z,8.8
2023-05-12T01:17:27.011Z,8.6
2023-05-12T01:18:35.317Z,8.6
2023-05-12T01:19:43.605Z,8.6
2023-05-12T01:20:52.227Z,9.1
2023-05-12T01:22:00.468Z,9.1
2023-05-12T01:23:08.787Z,9.1
2023-05-12T01:24:17.326Z,8.1
2023-05-12T01:25:25.661Z,8.1
2023-05-12T01:26:33.974Z,8.1
2023-05-12T01:27:42.510Z,9.1
2023-05-12T01:28:50.849Z,9.1
2023-05-12T01:29:59.169Z,9.1
2023-05-12T01:31:07.727Z,8.3
2023-05-12T01:32:16.022Z,8.3
2023-05-12T01:33:24.348Z,8.3
2023-05-12T01:34:32.880Z,8.7
2023-05-12T01:35:41.186Z,8.7
2023-05-12T01:36:49.539Z,8.7
2023-05-12T01:37:58.042Z,8.3
2023-05-12T01:39:06.351Z,8.3
2023-05-12T01:40:14.671Z,8.3
2023-05-12T01:41:23.197Z,8.2
2023-05-12T01:42:31.536Z,8.2
2023-05-12T01:43:39.855Z,8.2
2023-05-12T01:44:48.390Z,8.3
2023-05-12T01:45:56.692Z,8.3
2023-05-12T01:47:05.021Z,8.3
2023-05-12T01:48:13.540Z,9.3
2023-05-12T01:49:21.856Z,9.3
2023-05-12T01:50:30.167Z,9.3
2023-05-12T01:51:38.701Z,10
2023-05-12T01:52:47.047Z,10
2023-05-12T01:53:55.339Z,10
2023-05-12T01:55:03.854Z,10.5
2023-05-12T01:56:12.187Z,10.5
2023-05-12T01:57:20.501Z,10.5
2023-05-12T01:58:29.030Z,10.6
2023-05-12T01:59:37.335Z,10.6
2023-05-12T02:00:45.683Z,10.6
2023-05-12T02:01:54.242Z,11.6
2023-05-12T02:03:02.580Z,11.6
2023-05-12T02:04:10.898Z,11.6
2023-05-12T02:05:19.398Z,10.8
2023-05-12T02:06:27.721Z,10.8
2023-05-12T02:07:36.045Z,10.8
2023-05-12T02:08:44.585Z,11.8
2023-05-12T02:09:52.890Z,11.8
2023-05-12T02:11:01.221Z,11.8
2023-05-12T02:12:09.752Z,11.2
2023-05-12T02:13:18.059Z,11.2
2023-05-12T02:14:26.388Z,11.2
2023-05-12T02:15:34.920Z,11.6
2023-05-12T02:19:03.233Z,11.6
2023-05-12T02:20:11.739Z,10.3
2023-05-12T02:21:20.060Z,10.3
2023-05-12T02:22:28.364Z,10.3
2023-05-12T02:23:36.888Z,10.2
2023-05-12T02:24:45.230Z,10.2
2023-05-12T02:25:53.524Z,10.2
2023-05-12T02:27:02.049Z,9.5
2023-05-12T02:28:10.360Z,9.5
2023-05-12T02:29:18.690Z,9.5
2023-05-12T02:30:27.208Z,8.5
2023-05-12T02:31:35.615Z,8.5
2023-05-12T02:32:43.885Z,8.5
2023-05-12T02:33:52.399Z,7.6
2023-05-12T02:35:00.738Z,7.6
2023-05-12T02:36:09.042Z,7.6
2023-05-12T02:37:17.584Z,7.4
2023-05-12T02:38:25.945Z,7.4
2023-05-12T02:39:34.264Z,7.4
2023-05-12T02:40:42.793Z,7.4
2023-05-12T02:41:51.082Z,7.4
2023-05-12T02:42:59.396Z,7.4
2023-05-12T02:44:07.934Z,8.2
2023-05-12T02:45:16.241Z,8.2
2023-05-12T02:46:24.611Z,8.2
2023-05-12T02:47:33.177Z,8.3
2023-05-12T02:48:41.397Z,8.3
2023-05-12T02:49:49.709Z,8.3
2023-05-12T02:50:58.228Z,8.1
2023-05-12T02:52:06.577Z,8.1
2023-05-12T02:53:14.906Z,8.1
2023-05-12T02:54:23.423Z,8.1
2023-05-12T02:55:31.734Z,8.1
2023-05-12T02:56:40.099Z,8.1
2023-05-12T02:57:48.587Z,8
2023-05-12T02:58:56.909Z,8
2023-05-12T03:00:05.219Z,8
2023-05-12T03:01:13.742Z,8
2023-05-12T03:02:22.090Z,8
2023-05-12T03:03:30.395Z,8
2023-05-12T03:04:38.902Z,8
2023-05-12T03:05:47.228Z,8
2023-05-12T03:06:55.538Z,8
2023-05-12T03:08:04.069Z,7.8
2023-05-12T03:09:12.382Z,7.8
2023-05-12T03:10:20.827Z,7.8
2023-05-12T03:11:29.227Z,8.1
2023-05-12T03:12:37.579Z,8.1
2023-05-12T03:13:45.876Z,8.1
2023-05-12T03:14:54.398Z,8
2023-05-12T03:16:02.721Z,8
2023-05-12T03:17:11.058Z,8
2023-05-12T03:18:19.631Z,8.3
2023-05-12T03:19:27.879Z,8.3
2023-05-12T03:20:36.216Z,8.3
2023-05-12T03:21:44.734Z,8.7
2023-05-12T03:22:53.045Z,8.7
2023-05-12T03:24:01.357Z,8.7
2023-05-12T03:25:09.895Z,8.3
2023-05-12T03:26:18.236Z,8.3
2023-05-12T03:27:26.558Z,8.3
2023-05-12T03:28:35.168Z,7.7
2023-05-12T03:29:43.419Z,7.7
2023-05-12T03:30:51.738Z,7.7
2023-05-12T03:32:00.273Z,7.7
2023-05-12T03:33:08.579Z,7.7
2023-05-12T03:34:16.886Z,7.7
2023-05-12T03:35:25.415Z,7.4
2023-05-12T03:36:33.731Z,7.4
2023-05-12T03:37:42.043Z,7.4
2023-05-12T03:38:50.570Z,6.9
2023-05-12T03:39:58.911Z,6.9
2023-05-12T03:41:07.217Z,6.9
2023-05-12T03:42:15.740Z,7.4
2023-05-12T03:43:24.065Z,7.4
2023-05-12T03:44:32.435Z,7.4
2023-05-12T03:45:40.932Z,7
2023-05-12T03:46:49.291Z,7
2023-05-12T03:47:57.599Z,7
2023-05-12T03:49:06.125Z,6.8
2023-05-12T03:50:14.440Z,6.8
2023-05-12T03:51:22.752Z,6.8
2023-05-12T03:52:31.300Z,7.5
2023-05-12T03:53:39.619Z,7.5
2023-05-12T03:54:47.955Z,7.5
2023-05-12T03:55:56.476Z,6.8
2023-05-12T03:57:04.798Z,6.8
2023-05-12T03:58:13.112Z,6.8
2023-05-12T03:59:21.639Z,6.8
2023-05-12T04:00:29.974Z,6.8
2023-05-12T04:01:38.285Z,6.8
2023-05-12T04:02:46.809Z,7.3
2023-05-12T04:03:55.211Z,7.3
2023-05-12T04:05:03.438Z,7.3
2023-05-12T04:06:11.962Z,6.6
2023-05-12T04:07:20.271Z,6.6
2023-05-12T04:08:28.602Z,6.6
2023-05-12T04:09:37.111Z,7.1
2023-05-12T04:10:45.426Z,7.1
2023-05-12T04:11:53.739Z,7.1
2023-05-12T04:13:02.277Z,6.7
2023-05-12T04:14:10.591Z,6.7
2023-05-12T04:15:18.915Z,6.7
2023-05-12T04:16:27.498Z,6.2
2023-05-12T04:17:35.780Z,6.2
2023-05-12T04:18:44.116Z,6.2
2023-05-12T04:19:52.584Z,6.7
2023-05-12T04:21:00.899Z,6.7
2023-05-12T04:22:09.226Z,6.7
2023-05-12T04:23:17.769Z,6.4
2023-05-12T04:24:26.056Z,6.4
2023-05-12T04:25:34.397Z,6.4
2023-05-12T04:26:42.921Z,6.2
2023-05-12T04:27:51.237Z,6.2
2023-05-12T04:28:59.568Z,6.2
2023-05-12T04:30:08.109Z,7.2
2023-05-12T04:31:16.432Z,7.2
2023-05-12T04:32:24.826Z,7.2
2023-05-12T04:33:33.290Z,7.7
2023-05-12T04:34:41.612Z,7.7
2023-05-12T04:35:49.936Z,7.7
2023-05-12T04:36:58.476Z,7.2
2023-05-12T04:38:06.798Z,7.2
2023-05-12T04:39:15.132Z,7.2
2023-05-12T04:40:23.676Z,7.6
2023-05-12T04:41:31.992Z,7.6
2023-05-12T04:42:40.304Z,7.6
2023-05-12T04:44:57.144Z,7.7
2023-05-12T04:46:05.484Z,7.7
2023-05-12T04:47:13.987Z,7.3
2023-05-12T04:48:22.451Z,7.3
2023-05-12T04:49:30.637Z,7.3
2023-05-12T04:50:39.188Z,7.7
2023-05-12T04:51:47.514Z,7.7
2023-05-12T04:52:55.844Z,7.7
2023-05-12T04:54:04.397Z,6.2
2023-05-12T04:55:12.708Z,6.2
2023-05-12T04:56:21.042Z,6.2
2023-05-12T04:57:29.556Z,5.9
2023-05-12T04:58:37.875Z,5.9
2023-05-12T04:59:46.201Z,5.9
2023-05-12T05:00:54.755Z,5.5
2023-05-12T05:02:03.066Z,5.5
2023-05-12T05:03:11.544Z,5.5
2023-05-12T05:04:19.950Z,5.7
2023-05-12T05:05:28.261Z,5.7
2023-05-12T05:06:36.578Z,5.7
2023-05-12T05:07:45.109Z,5.7
2023-05-12T05:08:53.432Z,5.7
2023-05-12T05:10:01.777Z,5.7
2023-05-12T05:11:10.314Z,5.6
2023-05-12T05:12:18.627Z,5.6
2023-05-12T05:13:26.956Z,5.6
2023-05-12T05:14:35.492Z,5.8
2023-05-12T05:15:43.867Z,5.8
2023-05-12T05:16:52.156Z,5.8
2023-05-12T05:18:01.851Z,5.8
2023-05-12T05:19:19.444Z,5.8
2023-05-12T05:20:17.412Z,5.8
2023-05-12T05:21:25.852Z,6.1
2023-05-12T05:22:34.173Z,6.1
2023-05-12T05:23:42.491Z,6.1
2023-05-12T05:24:51.017Z,6
2023-05-12T05:25:59.338Z,6
2023-05-12T05:27:07.649Z,6
2023-05-12T05:28:16.211Z,6.1
2023-05-12T05:29:24.546Z,6.1
2023-05-12T05:30:32.854Z,6.1
2023-05-12T05:31:41.407Z,6
2023-05-12T05:32:49.756Z,6
2023-05-12T05:33:58.343Z,6
2023-05-12T05:35:06.818Z,6.2
2023-05-12T05:36:15.272Z,6.2
2023-05-12T05:37:23.470Z,6.2
2023-05-12T05:38:32.034Z,6.3
2023-05-12T05:39:40.362Z,6.3
2023-05-12T05:40:53.433Z,6.3
2023-05-12T05:41:57.205Z,6.4
2023-05-12T05:43:05.531Z,6.4
2023-05-12T05:44:13.850Z,6.4
2023-05-12T05:45:22.417Z,6.5
2023-05-12T05:46:30.785Z,6.5
2023-05-12T05:47:39.123Z,6.5
2023-05-12T05:48:47.610Z,6.5
2023-05-12T05:49:55.954Z,6.5
2023-05-12T05:51:04.275Z,6.5
2023-05-12T05:52:12.842Z,6.6
2023-05-12T05:53:21.122Z,6.6
2023-05-12T05:54:29.441Z,6.6
2023-05-12T05:55:37.973Z,6.1
2023-05-12T05:56:46.315Z,6.1
2023-05-12T05:57:54.629Z,6.1
2023-05-12T05:59:03.208Z,6.2
2023-05-12T06:00:11.472Z,6.2
2023-05-12T06:01:19.819Z,6.2
2023-05-12T06:02:28.404Z,5.8
2023-05-12T06:03:36.706Z,5.8
2023-05-12T06:04:44.984Z,5.8
2023-05-12T06:05:53.539Z,6.5
2023-05-12T06:07:01.863Z,6.5
2023-05-12T06:08:10.260Z,6.5
2023-05-12T06:09:18.732Z,6
2023-05-12T06:10:27.059Z,6
2023-05-12T06:11:35.378Z,6
2023-05-12T06:12:43.930Z,6.1
2023-05-12T06:13:52.264Z,6.1
2023-05-12T06:15:00.592Z,6.1
2023-05-12T06:16:09.145Z,6.4
2023-05-12T06:17:17.442Z,6.4
2023-05-12T06:18:25.790Z,6.4
2023-05-12T06:19:34.309Z,6
2023-05-12T06:20:42.633Z,6
2023-05-12T06:21:50.959Z,6
2023-05-12T06:22:59.488Z,6.6
2023-05-12T06:24:07.848Z,6.6
2023-05-12T06:25:16.156Z,6.6
2023-05-12T06:26:24.679Z,6.4
2023-05-12T06:27:32.988Z,6.4
2023-05-12T06:28:41.305Z,6.4
2023-05-12T06:29:49.859Z,7.1
2023-05-12T06:30:58.184Z,7.1
2023-05-12T06:32:06.566Z,7.1
2023-05-12T06:33:15.065Z,7.5
2023-05-12T06:34:23.395Z,7.5
2023-05-12T06:35:31.714Z,7.5
2023-05-12T06:36:40.258Z,7.6
2023-05-12T06:37:48.583Z,7.6
2023-05-12T06:38:56.927Z,7.6
2023-05-12T06:40:05.524Z,8.1
2023-05-12T06:41:13.762Z,8.1
2023-05-12T06:42:22.083Z,8.1
2023-05-12T06:43:30.650Z,7.6
2023-05-12T06:44:41.183Z,7.6
2023-05-12T06:45:47.287Z,7.6
2023-05-12T06:46:55.814Z,8.1
2023-05-12T06:48:04.173Z,8.1
2023-05-12T06:49:12.513Z,8.1
2023-05-12T06:50:21.038Z,8.8
2023-05-12T06:51:29.385Z,8.8
2023-05-12T06:52:37.694Z,8.8
2023-05-12T06:53:46.221Z,8.1
2023-05-12T06:54:54.543Z,8.1
2023-05-12T06:56:02.894Z,8.1
2023-05-12T06:57:11.432Z,8.5
2023-05-12T06:58:19.743Z,8.5
2023-05-12T06:59:28.058Z,8.5
2023-05-12T07:00:36.592Z,9
2023-05-12T07:01:44.949Z,9
2023-05-12T07:02:53.311Z,9
2023-05-12T07:04:01.819Z,9.2
2023-05-12T07:05:10.110Z,9.2
2023-05-12T07:06:18.425Z,9.2
2023-05-12T07:07:26.958Z,9.3
2023-05-12T07:08:35.275Z,9.3
2023-05-12T07:09:43.607Z,9.3
2023-05-12T07:10:52.127Z,8.9
2023-05-12T07:12:00.599Z,8.9
2023-05-12T07:13:08.801Z,8.9
2023-05-12T07:14:17.304Z,8.2
2023-05-12T07:15:25.623Z,8.2
2023-05-12T07:16:34.058Z,8.2
2023-05-12T07:17:42.553Z,8
2023-05-12T07:18:50.901Z,8
2023-05-12T07:19:59.215Z,8
2023-05-12T07:21:07.756Z,7.5
2023-05-12T07:22:16.079Z,7.5
2023-05-12T07:23:24.401Z,7.5
2023-05-12T07:24:32.924Z,8
2023-05-12T07:25:41.338Z,8
2023-05-12T07:26:49.595Z,8
2023-05-12T07:27:58.187Z,7.9
2023-05-12T07:29:06.468Z,7.9
2023-05-12T07:30:14.810Z,7.9
2023-05-12T07:31:23.392Z,8.4
2023-05-12T07:32:31.674Z,8.4
2023-05-12T07:33:39.991Z,8.4
2023-05-12T07:34:48.545Z,8
2023-05-12T07:35:56.858Z,8
2023-05-12T07:37:05.180Z,8
2023-05-12T07:38:13.707Z,7.9
2023-05-12T07:39:22.035Z,7.9
2023-05-12T07:40:30.345Z,7.9
2023-05-12T07:41:38.889Z,6.2
2023-05-12T07:42:47.194Z,6.2
2023-05-12T07:43:55.536Z,6.2
2023-05-12T07:45:04.034Z,7
2023-05-12T07:46:12.349Z,7
2023-05-12T07:47:20.675Z,7
2023-05-12T07:48:29.203Z,7.4
2023-05-12T07:49:38.981Z,7.4
2023-05-12T07:50:47.333Z,7.4
2023-05-12T07:51:55.858Z,6.6
2023-05-12T07:53:04.170Z,6.6
2023-05-12T07:54:12.498Z,6.6
2023-05-12T07:55:21.348Z,6.6
2023-05-12T07:56:29.357Z,6.6
2023-05-12T07:57:37.664Z,6.6
2023-05-12T07:58:47.399Z,6.6
2023-05-12T07:59:54.740Z,6.6
2023-05-12T08:01:02.832Z,6.6
2023-05-12T08:02:11.386Z,6.4
2023-05-12T08:03:19.720Z,6.4
2023-05-12T08:04:28.076Z,6.4
2023-05-12T08:05:36.549Z,5.8
2023-05-12T08:06:44.872Z,5.8
2023-05-12T08:07:53.213Z,5.8
2023-05-12T08:09:01.751Z,5.6
2023-05-12T08:10:10.059Z,5.6
2023-05-12T08:11:18.378Z,5.6
2023-05-12T08:12:26.923Z,6
2023-05-12T08:13:35.254Z,6
2023-05-12T08:14:43.568Z,6
2023-05-12T08:15:52.284Z,6.2
2023-05-12T08:17:00.458Z,6.2
2023-05-12T08:18:08.761Z,6.2
2023-05-12T08:19:17.289Z,5.3
2023-05-12T08:20:25.609Z,5.3
2023-05-12T08:21:33.934Z,5.3
2023-05-12T08:22:42.461Z,5.9
2023-05-12T08:23:50.785Z,5.9
2023-05-12T08:24:59.109Z,5.9
2023-05-12T08:26:07.627Z,6.2
2023-05-12T08:27:16.804Z,6.2
2023-05-12T08:28:25.128Z,6.2
2023-05-12T08:29:33.660Z,6.3
2023-05-12T08:30:41.977Z,6.3
2023-05-12T08:31:50.473Z,6.3
2023-05-12T08:32:58.892Z,6.6
2023-05-12T08:34:10.643Z,6.6
2023-05-12T08:35:15.469Z,6.6
2023-05-12T08:36:24.030Z,5.6
2023-05-12T08:37:34.207Z,5.6
2023-05-12T08:38:40.651Z,5.6
2023-05-12T08:39:49.173Z,4.7
2023-05-12T08:40:57.500Z,4.7
2023-05-12T08:42:05.849Z,4.7
2023-05-12T08:43:14.382Z,4.1
2023-05-12T08:44:22.690Z,4.1
2023-05-12T08:45:31.030Z,4.1
2023-05-12T08:46:39.614Z,4.1
2023-05-12T08:47:48.189Z,4.1
2023-05-12T08:48:56.216Z,4.1
2023-05-12T08:50:04.918Z,4.4
2023-05-12T08:51:13.320Z,4.4
2023-05-12T08:52:21.560Z,4.4
2023-05-12T08:53:30.097Z,4.3
2023-05-12T08:54:45.540Z,4.3
2023-05-12T08:55:58.581Z,4.3
2023-05-12T08:58:03.627Z,4.6
2023-05-12T08:59:11.933Z,4.6
2023-05-12T09:00:20.675Z,4.5
2023-05-12T09:01:28.824Z,4.5
2023-05-12T09:02:48.639Z,4.5
2023-05-12T09:03:45.651Z,4.7
2023-05-12T09:04:53.981Z,4.7
2023-05-12T09:06:02.276Z,4.7
2023-05-12T09:07:10.827Z,4.5
2023-05-12T09:08:19.144Z,4.5
2023-05-12T09:09:27.469Z,4.5
2023-05-12T09:10:36.066Z,4.8
2023-05-12T09:11:44.318Z,4.8
2023-05-12T09:12:52.657Z,4.8
2023-05-12T09:14:01.192Z,4.9
2023-05-12T09:15:09.529Z,4.9
2023-05-12T09:16:17.884Z,4.9
2023-05-12T09:17:26.407Z,5.2
2023-05-12T09:18:34.741Z,5.2
2023-05-12T09:19:43.274Z,5.2
2023-05-12T09:20:51.561Z,4.4
2023-05-12T09:21:59.877Z,4.4
2023-05-12T09:23:08.213Z,4.4
2023-05-12T09:24:16.747Z,5
2023-05-12T09:25:25.066Z,5
2023-05-12T09:26:33.401Z,5
2023-05-12T09:27:41.985Z,5
2023-05-12T09:28:50.304Z,5
2023-05-12T09:29:59.826Z,5
2023-05-12T09:31:07.163Z,4.7
2023-05-12T09:32:15.479Z,4.7
2023-05-12T09:33:23.805Z,4.7
2023-05-12T09:34:32.376Z,4.7
2023-05-12T09:35:40.902Z,4.7
2023-05-12T09:36:49.015Z,4.7
2023-05-12T09:37:57.547Z,4.5
2023-05-12T09:39:05.872Z,4.5
2023-05-12T09:40:14.213Z,4.5
2023-05-12T09:41:22.735Z,4.4
2023-05-12T09:42:31.074Z,4.4
2023-05-12T09:43:39.646Z,4.4
2023-05-12T09:44:48.201Z,5.1
2023-05-12T09:45:56.551Z,5.1
2023-05-12T09:47:04.870Z,5.1
2023-05-12T09:48:13.394Z,4.4
2023-05-12T09:49:21.724Z,4.4
2023-05-12T09:50:34.975Z,4.4
2023-05-12T09:51:38.644Z,4.6
2023-05-12T09:52:46.939Z,4.6
2023-05-12T09:53:55.273Z,4.6
2023-05-12T09:55:03.824Z,4.7
2023-05-12T09:56:12.142Z,4.7
2023-05-12T09:57:20.494Z,4.7
2023-05-12T09:58:29.020Z,4.6
2023-05-12T09:59:37.353Z,4.6
2023-05-12T10:00:58.998Z,4.6
2023-05-12T10:01:54.213Z,4.4
2023-05-12T10:03:02.560Z,4.4
2023-05-12T10:04:10.891Z,4.4
2023-05-12T10:05:19.509Z,4.9
2023-05-12T10:06:27.729Z,4.9
2023-05-12T10:07:36.266Z,4.9
2023-05-12T10:08:45.232Z,4.9
2023-05-12T10:09:53.542Z,4.9
2023-05-12T10:11:01.878Z,4.9
2023-05-12T10:12:10.422Z,4.3
2023-05-12T10:13:18.771Z,4.3
2023-05-12T10:14:27.089Z,4.3
2023-05-12T10:15:35.672Z,4.7
2023-05-12T10:16:44.047Z,4.7
2023-05-12T10:17:53.850Z,4.7
2023-05-12T10:19:00.923Z,4.7
2023-05-12T10:20:09.249Z,4.7
2023-05-12T10:21:17.593Z,4.7
2023-05-12T10:22:26.175Z,5
2023-05-12T10:23:36.525Z,5
2023-05-12T10:24:42.803Z,5
2023-05-12T10:25:51.323Z,4.4
2023-05-12T10:26:59.882Z,4.4
2023-05-12T10:28:07.997Z,4.4
2023-05-12T10:29:16.523Z,4.2
2023-05-12T10:30:24.852Z,4.2
2023-05-12T10:31:33.217Z,4.2
2023-05-12T10:32:41.799Z,4.1
2023-05-12T10:33:50.088Z,4.1
2023-05-12T10:34:58.409Z,4.1
2023-05-12T10:36:07.729Z,4.5
2023-05-12T10:37:16.089Z,4.5
2023-05-12T10:38:24.415Z,4.5
2023-05-12T10:39:33.121Z,4.4
2023-05-12T10:40:41.271Z,4.4
2023-05-12T10:41:51.060Z,4.4
2023-05-12T10:42:58.127Z,4.1
2023-05-12T10:44:06.462Z,4.1
2023-05-12T10:45:14.808Z,4.1
2023-05-12T10:46:23.380Z,4
2023-05-12T10:47:31.699Z,4
2023-05-12T10:48:39.994Z,4
2023-05-12T10:49:48.560Z,3.8
2023-05-12T10:50:56.885Z,3.8
2023-05-12T10:52:05.211Z,3.8
2023-05-12T10:53:13.757Z,4.6
2023-05-12T10:54:22.203Z,4.6
2023-05-12T10:55:30.597Z,4.6
2023-05-12T10:56:39.328Z,4.5
2023-05-12T10:57:48.172Z,4.5
2023-05-12T10:58:56.422Z,4.5
2023-05-12T11:00:05.224Z,5
2023-05-12T11:01:13.732Z,5
2023-05-12T11:02:22.005Z,5
2023-05-12T11:03:30.532Z,5.5
2023-05-12T11:04:38.505Z,5.5
2023-05-12T11:05:46.867Z,5.5
2023-05-12T11:06:56.084Z,5.2
2023-05-12T11:08:04.874Z,5.2
2023-05-12T11:09:13.215Z,5.2
2023-05-12T11:10:21.990Z,4.8
2023-05-12T11:11:29.841Z,4.8
2023-05-12T11:12:38.223Z,4.8
2023-05-12T11:13:46.531Z,4.8
2023-05-12T11:14:54.861Z,4.8
2023-05-12T11:16:03.232Z,4.8
2023-05-12T11:17:11.739Z,4.6
2023-05-12T11:18:20.191Z,4.6
2023-05-12T11:19:28.435Z,4.6
2023-05-12T11:20:36.997Z,4.4
2023-05-12T11:21:45.363Z,4.4
2023-05-12T11:22:53.704Z,4.4
2023-05-12T11:24:02.207Z,4.2
2023-05-12T11:25:10.541Z,4.2
2023-05-12T11:26:18.896Z,4.2
2023-05-12T11:27:27.467Z,4.3
2023-05-12T11:28:35.772Z,4.3
2023-05-12T11:29:44.117Z,4.3
2023-05-12T11:30:54.847Z,4.4
2023-05-12T11:32:01.025Z,4.4
2023-05-12T11:33:09.356Z,4.4
2023-05-12T11:34:17.891Z,4.1
2023-05-12T11:35:26.234Z,4.1
2023-05-12T11:36:34.564Z,4.1
2023-05-12T11:37:43.134Z,4.7
2023-05-12T11:38:51.463Z,4.7
2023-05-12T11:39:59.798Z,4.7
2023-05-12T11:41:08.393Z,4.8
2023-05-12T11:42:18.842Z,4.8
2023-05-12T11:43:25.096Z,4.8
2023-05-12T11:44:33.598Z,4.8
2023-05-12T11:45:41.980Z,4.8
2023-05-12T11:46:50.280Z,4.8
2023-05-12T11:47:59.342Z,4.6
2023-05-12T11:49:07.135Z,4.6
2023-05-12T11:50:15.476Z,4.6
2023-05-12T11:51:24.020Z,4.3
2023-05-12T11:52:32.341Z,4.3
2023-05-12T11:53:40.715Z,4.3
2023-05-12T11:54:49.273Z,4.2
2023-05-12T11:55:57.596Z,4.2
2023-05-12T11:57:05.949Z,4.2
2023-05-12T11:58:14.751Z,4.5
2023-05-12T11:59:23.139Z,4.5
2023-05-12T12:00:31.461Z,4.5
2023-05-12T12:01:40.046Z,4.9
2023-05-12T12:02:48.401Z,4.9
2023-05-12T12:03:56.765Z,4.9
2023-05-12T12:06:13.604Z,4.5
2023-05-12T12:07:21.923Z,4.5
2023-05-12T12:08:30.482Z,4.3
2023-05-12T12:09:38.837Z,4.3
2023-05-12T12:10:47.182Z,4.3
2023-05-12T12:11:55.722Z,3.9
2023-05-12T12:13:04.039Z,3.9
2023-05-12T12:14:12.389Z,3.9
2023-05-12T12:15:21.149Z,4.6
2023-05-12T12:16:29.315Z,4.6
2023-05-12T12:17:37.653Z,4.6
2023-05-12T12:18:46.184Z,4.1
2023-05-12T12:19:54.500Z,4.1
2023-05-12T12:21:02.816Z,4.1
2023-05-12T12:22:11.350Z,4.5
2023-05-12T12:23:19.699Z,4.5
2023-05-12T12:24:28.039Z,4.5
2023-05-12T12:25:36.604Z,4.8
2023-05-12T12:26:44.918Z,4.8
2023-05-12T12:27:53.284Z,4.8
2023-05-12T12:29:01.835Z,4.1
2023-05-12T12:30:10.225Z,4.1
2023-05-12T12:31:18.559Z,4.1
2023-05-12T12:32:27.101Z,3.3
2023-05-12T12:33:35.396Z,3.3
2023-05-12T12:34:43.727Z,3.3
2023-05-12T12:35:52.276Z,3.7
2023-05-12T12:37:00.600Z,3.7
2023-05-12T12:38:08.933Z,3.7
2023-05-12T12:39:19.150Z,4.2
2023-05-12T12:40:25.797Z,4.2
2023-05-12T12:41:34.123Z,4.2
2023-05-12T12:42:42.685Z,4.3
2023-05-12T12:43:51.074Z,4.3
2023-05-12T12:44:59.375Z,4.3
2023-05-12T12:46:07.926Z,4.3
2023-05-12T12:47:16.320Z,4.3
2023-05-12T12:48:24.601Z,4.3
2023-05-12T12:49:33.129Z,4.7
2023-05-12T12:50:41.506Z,4.7
2023-05-12T12:51:49.831Z,4.7
2023-05-12T12:52:58.390Z,4.2
2023-05-12T12:54:06.750Z,4.2
2023-05-12T12:55:15.067Z,4.2
2023-05-12T12:56:24.968Z,4.9
2023-05-12T12:57:31.974Z,4.9
2023-05-12T12:58:40.323Z,4.9
2023-05-12T12:59:48.853Z,4.1
2023-05-12T13:00:57.190Z,4.1
2023-05-12T13:02:05.543Z,4.1
2023-05-12T13:03:14.157Z,4.3
2023-05-12T13:04:22.406Z,4.3
2023-05-12T13:05:30.780Z,4.3
2023-05-12T13:06:39.328Z,3.8
2023-05-12T13:07:47.666Z,3.8
2023-05-12T13:08:56.018Z,3.8
2023-05-12T13:10:04.537Z,4.3
2023-05-12T13:11:12.905Z,4.3
2023-05-12T13:12:21.248Z,4.3
2023-05-12T13:13:29.795Z,3.6
2023-05-12T13:14:38.129Z,3.6
2023-05-12T13:15:46.452Z,3.6
2023-05-12T13:16:55.038Z,3.6
2023-05-12T13:18:03.380Z,3.6
2023-05-12T13:19:11.768Z,3.6
2023-05-12T13:20:20.373Z,3.7
2023-05-12T13:21:28.594Z,3.7
2023-05-12T13:22:36.929Z,3.7
2023-05-12T13:23:45.471Z,3.6
2023-05-12T13:24:53.807Z,3.6
2023-05-12T13:26:02.172Z,3.6
2023-05-12T13:27:10.724Z,3.4
2023-05-12T13:28:19.048Z,3.4
2023-05-12T13:29:27.401Z,3.4
2023-05-12T13:30:35.957Z,3.3
2023-05-12T13:31:44.279Z,3.3
2023-05-12T13:32:52.629Z,3.3
2023-05-12T13:34:01.161Z,3.4
2023-05-12T13:35:09.536Z,3.4
2023-05-12T13:36:17.875Z,3.4
2023-05-12T13:37:26.405Z,3.6
2023-05-12T13:38:34.743Z,3.6
2023-05-12T13:39:43.140Z,3.6
2023-05-12T13:40:51.634Z,3.2
2023-05-12T13:41:59.970Z,3.2
2023-05-12T13:43:08.311Z,3.2
2023-05-12T13:44:16.900Z,3
2023-05-12T13:45:25.601Z,3
2023-05-12T13:46:33.659Z,3
2023-05-12T13:47:42.232Z,3.3
2023-05-12T13:48:50.582Z,3.3
2023-05-12T13:49:58.904Z,3.3
2023-05-12T13:51:07.479Z,3.1
2023-05-12T13:52:15.802Z,3.1
2023-05-12T13:53:24.149Z,3.1
2023-05-12T13:54:32.697Z,2.9
2023-05-12T13:55:41.119Z,2.9
2023-05-12T13:56:49.369Z,2.9
2023-05-12T13:57:57.939Z,2.9
2023-05-12T13:59:06.293Z,2.9
2023-05-12T14:00:14.632Z,2.9
2023-05-12T14:01:23.244Z,3
2023-05-12T14:02:31.491Z,3
2023-05-12T14:03:39.816Z,3
2023-05-12T14:04:48.374Z,3
2023-05-12T14:05:56.696Z,3
2023-05-12T14:07:06.632Z,3
2023-05-12T14:08:13.566Z,3.4
2023-05-12T14:09:21.907Z,3.4
2023-05-12T14:10:30.224Z,3.4
2023-05-12T14:11:38.776Z,3.2
2023-05-12T14:12:47.103Z,3.2
2023-05-12T14:13:55.419Z,3.2
2023-05-12T14:15:19.597Z,3.5
2023-05-12T14:16:12.324Z,3.5
2023-05-12T14:17:20.625Z,3.5
2023-05-12T14:18:29.225Z,3.1
2023-05-12T14:19:37.562Z,3.1
2023-05-12T14:20:45.893Z,3.1
2023-05-12T14:21:54.419Z,3.1
2023-05-12T14:23:02.797Z,3.1
2023-05-12T14:24:11.059Z,3.1
2023-05-12T14:25:19.767Z,3
2023-05-12T14:26:27.910Z,3
2023-05-12T14:27:36.261Z,3
2023-05-12T14:28:44.841Z,3.2
2023-05-12T14:29:53.134Z,3.2
2023-05-12T14:31:01.430Z,3.2
2023-05-12T14:32:10.097Z,3.7
2023-05-12T14:33:18.345Z,3.7
2023-05-12T14:34:26.681Z,3.7
2023-05-12T14:35:35.226Z,2.8
2023-05-12T14:36:43.579Z,2.8
2023-05-12T14:37:51.919Z,2.8
2023-05-12T14:39:00.581Z,3.1
2023-05-12T14:40:08.872Z,3.1
2023-05-12T14:41:17.144Z,3.1
2023-05-12T14:42:25.691Z,3.1
2023-05-12T14:43:34.031Z,3.1
2023-05-12T14:44:42.365Z,3.1
2023-05-12T14:45:50.993Z,3.1
2023-05-12T14:46:59.267Z,3.1
2023-05-12T14:48:07.632Z,3.1
2023-05-12T14:49:16.157Z,2.9
2023-05-12T14:50:24.506Z,2.9
2023-05-12T14:51:32.845Z,2.9
2023-05-12T14:52:41.389Z,3.1
2023-05-12T14:53:49.737Z,3.1
2023-05-12T14:54:58.117Z,3.1
2023-05-12T14:56:06.638Z,3.3
2023-05-12T14:57:14.980Z,3.3
2023-05-12T14:58:23.306Z,3.3
2023-05-12T14:59:31.874Z,3.2
2023-05-12T15:00:40.359Z,3.2
2023-05-12T15:01:48.782Z,3.2
2023-05-12T15:02:57.294Z,3.7
2023-05-12T15:04:05.609Z,3.7
2023-05-12T15:05:13.951Z,3.7
2023-05-12T15:06:22.510Z,3
2023-05-12T15:07:30.838Z,3
2023-05-12T15:08:39.171Z,3
2023-05-12T15:09:47.750Z,3.2
2023-05-12T15:10:56.091Z,3.2
2023-05-12T15:12:04.397Z,3.2
2023-05-12T15:45:03.716Z,0
2023-05-12T15:46:12.064Z,0
2023-05-12T15:47:20.383Z,0
2023-05-12T15:48:28.915Z,3.6
2023-05-12T15:49:37.253Z,3.6
2023-05-12T15:50:45.598Z,3.6
2023-05-12T15:51:54.155Z,4
2023-05-12T15:53:02.494Z,4
2023-05-12T15:54:10.823Z,4
2023-05-12T15:55:19.688Z,3.8
2023-05-12T15:56:27.725Z,3.8
2023-05-12T15:57:36.075Z,3.8
2023-05-12T15:58:44.626Z,3.4
2023-05-12T15:59:52.968Z,3.4
2023-05-12T16:01:01.319Z,3.4
2023-05-12T16:02:09.932Z,3.4
2023-05-12T16:03:18.230Z,3.4
2023-05-12T16:04:26.512Z,3.4
2023-05-12T16:05:35.053Z,3.9
2023-05-12T16:06:43.386Z,3.9
2023-05-12T16:07:51.725Z,3.9
2023-05-12T16:09:00.276Z,3.4
2023-05-12T16:10:08.607Z,3.4
2023-05-12T16:11:16.957Z,3.4
2023-05-12T16:12:25.520Z,3.4
2023-05-12T16:13:33.860Z,3.4
2023-05-12T16:14:42.216Z,3.4
2023-05-12T16:15:50.781Z,6.1
2023-05-12T16:16:59.125Z,6.1
2023-05-12T16:18:09.265Z,6.1
2023-05-12T16:19:15.996Z,57.099998
2023-05-12T16:20:24.332Z,57.099998
2023-05-12T16:21:32.674Z,57.099998
2023-05-12T16:22:41.220Z,31.1
2023-05-12T16:23:49.547Z,31.1
2023-05-12T16:24:57.897Z,31.1